createdAt,value
2019-03-31T00:01:07.670Z,61.17
2019-03-31T00:03:27.107Z,63.40
2019-03-31T00:05:55.627Z,61.87
2019-03-31T00:08:24.465Z,60.00
2019-03-31T00:10:53.370Z,62.13
2019-03-31T00:13:22.245Z,61.73
2019-03-31T00:15:51.753Z,62.53
2019-03-31T00:18:20.179Z,58.47
2019-03-31T00:20:49.105Z,56.83
2019-03-31T00:23:18.455Z,60.07
2019-03-31T00:25:51.376Z,66.10
2019-03-31T00:28:19.719Z,58.70
2019-03-31T00:30:48.034Z,58.67
2019-03-31T00:33:16.512Z,55.13
2019-03-31T00:35:44.797Z,48.83
2019-03-31T00:38:13.155Z,55.47
2019-03-31T00:40:41.448Z,48.33
2019-03-31T00:43:09.807Z,40.97
2019-03-31T00:45:38.312Z,35.73
2019-03-31T00:48:06.739Z,34.77
2019-03-31T00:50:35.016Z,37.27
2019-03-31T00:53:03.285Z,40.37
2019-03-31T00:55:31.718Z,36.53
2019-03-31T00:57:59.938Z,33.47
2019-03-31T01:00:56.343Z,30.70
2019-03-31T01:03:24.971Z,29.90
2019-03-31T01:05:53.262Z,30.23
2019-03-31T01:08:21.934Z,30.57
2019-03-31T01:10:50.299Z,29.57
2019-03-31T01:13:18.572Z,29.13
2019-03-31T01:15:47.072Z,29.63
2019-03-31T01:18:15.492Z,29.53
2019-03-31T01:20:44.311Z,29.93
2019-03-31T01:23:12.616Z,30.93
2019-03-31T01:25:40.927Z,30.43
2019-03-31T01:28:09.303Z,27.90
2019-03-31T01:30:37.587Z,28.30
2019-03-31T01:33:06.006Z,28.13
2019-03-31T01:35:34.290Z,30.83
2019-03-31T01:38:02.593Z,28.10
2019-03-31T01:40:30.866Z,33.50
2019-03-31T01:42:59.201Z,28.33
2019-03-31T01:45:27.406Z,26.70
2019-03-31T01:47:55.773Z,29.90
2019-03-31T01:50:25.494Z,27.77
2019-03-31T01:52:53.732Z,31.20
2019-03-31T01:55:23.142Z,30.13
2019-03-31T01:57:51.435Z,27.27
2019-03-31T02:00:36.240Z,32.33
2019-03-31T02:03:04.488Z,26.03
2019-03-31T02:05:32.884Z,27.30
2019-03-31T02:08:01.254Z,31.80
2019-03-31T02:10:29.585Z,31.20
2019-03-31T02:12:57.906Z,32.27
2019-03-31T02:15:26.182Z,31.17
2019-03-31T02:17:54.461Z,29.90
2019-03-31T02:20:22.738Z,31.37
2019-03-31T02:22:51.018Z,30.77
2019-03-31T02:25:19.301Z,33.70
2019-03-31T02:27:47.723Z,35.23
2019-03-31T02:30:16.225Z,32.57
2019-03-31T02:32:44.526Z,34.33
2019-03-31T02:35:12.813Z,32.37
2019-03-31T02:37:41.041Z,31.23
2019-03-31T02:40:09.349Z,35.90
2019-03-31T02:42:37.628Z,36.07
2019-03-31T02:45:05.950Z,36.07
2019-03-31T02:47:34.481Z,37.17
2019-03-31T02:50:02.797Z,38.50
2019-03-31T02:52:31.027Z,37.50
2019-03-31T02:54:59.297Z,42.90
2019-03-31T02:57:27.662Z,37.10
2019-03-31T02:59:55.959Z,36.43
2019-03-31T03:02:40.533Z,40.50
2019-03-31T03:04:55.333Z,40.73
2019-03-31T03:07:23.610Z,49.27
2019-03-31T03:09:51.852Z,45.83
2019-03-31T03:12:20.206Z,44.40
2019-03-31T03:14:49.186Z,46.23
2019-03-31T03:17:17.452Z,43.97
2019-03-31T03:19:45.729Z,48.27
2019-03-31T03:22:14.049Z,44.63
2019-03-31T03:24:42.328Z,43.63
2019-03-31T03:27:10.614Z,50.87
2019-03-31T03:29:38.840Z,50.37
2019-03-31T03:32:07.229Z,47.40
2019-03-31T03:34:35.606Z,45.07
2019-03-31T03:37:03.849Z,51.07
2019-03-31T03:39:32.138Z,44.63
2019-03-31T03:42:00.450Z,45.53
2019-03-31T03:44:28.826Z,46.87
2019-03-31T03:46:57.112Z,47.67
2019-03-31T03:49:25.475Z,52.50
2019-03-31T03:51:53.835Z,51.23
2019-03-31T03:54:22.124Z,50.33
2019-03-31T03:56:50.822Z,52.03
2019-03-31T03:59:19.130Z,52.50
2019-03-31T04:01:47.400Z,51.03
2019-03-31T04:04:15.667Z,54.13
2019-03-31T04:06:43.941Z,52.77
2019-03-31T04:09:12.248Z,51.67
2019-03-31T04:11:40.534Z,50.93
2019-03-31T04:14:08.858Z,54.13
2019-03-31T04:16:37.183Z,56.00
2019-03-31T04:19:06.460Z,48.27
2019-03-31T04:21:34.728Z,59.73
2019-03-31T04:24:04.051Z,57.23
2019-03-31T04:26:32.341Z,52.73
2019-03-31T04:29:00.636Z,56.07
2019-03-31T04:31:28.952Z,62.37
2019-03-31T04:33:57.220Z,59.07
2019-03-31T04:36:25.523Z,58.23
2019-03-31T04:38:53.776Z,65.13
2019-03-31T04:41:22.049Z,60.47
2019-03-31T04:43:50.264Z,62.20
2019-03-31T04:46:18.512Z,64.43
2019-03-31T04:48:46.773Z,61.67
2019-03-31T04:51:15.117Z,60.23
2019-03-31T04:53:43.363Z,66.17
2019-03-31T04:56:11.738Z,62.67
2019-03-31T04:58:39.994Z,70.07
2019-03-31T05:01:08.404Z,63.30
2019-03-31T05:03:36.685Z,67.73
2019-03-31T05:06:04.981Z,67.80
2019-03-31T05:08:33.249Z,71.67
2019-03-31T05:11:01.644Z,65.33
2019-03-31T05:13:29.848Z,65.03
2019-03-31T05:15:58.200Z,62.77
2019-03-31T05:18:26.533Z,67.20
2019-03-31T05:20:54.867Z,65.53
2019-03-31T05:23:23.163Z,65.87
2019-03-31T05:25:51.411Z,65.10
2019-03-31T05:28:19.666Z,64.87
2019-03-31T05:30:47.956Z,63.40
2019-03-31T05:33:16.413Z,67.97
2019-03-31T05:35:44.734Z,69.00
2019-03-31T05:38:12.959Z,67.67
2019-03-31T05:40:41.211Z,74.87
2019-03-31T05:43:09.562Z,62.57
2019-03-31T05:45:37.856Z,66.73
2019-03-31T05:48:06.138Z,67.97
2019-03-31T05:50:34.412Z,57.60
2019-03-31T05:53:02.834Z,70.23
2019-03-31T05:55:31.108Z,62.47
2019-03-31T05:57:59.418Z,67.10
2019-03-31T06:00:30.186Z,68.83
2019-03-31T06:02:58.428Z,64.23
2019-03-31T06:05:26.718Z,70.40
2019-03-31T06:07:54.963Z,66.70
2019-03-31T06:10:23.294Z,60.33
2019-03-31T06:12:51.586Z,65.83
2019-03-31T06:15:19.889Z,62.83
2019-03-31T06:17:48.120Z,59.53
2019-03-31T06:20:16.359Z,56.10
2019-03-31T06:22:44.672Z,61.28
2019-03-31T06:25:13.014Z,52.63
2019-03-31T06:27:41.264Z,54.67
2019-03-31T06:30:09.527Z,55.40
2019-03-31T06:32:37.751Z,52.27
2019-03-31T06:35:06.124Z,55.27
2019-03-31T06:37:34.356Z,58.70
2019-03-31T06:40:02.928Z,53.23
2019-03-31T06:42:31.176Z,53.67
2019-03-31T06:45:01.462Z,53.30
2019-03-31T06:47:29.748Z,52.30
2019-03-31T06:49:58.160Z,47.97
2019-03-31T06:52:26.556Z,48.43
2019-03-31T06:54:55.031Z,52.97
2019-03-31T06:57:23.482Z,48.27
2019-03-31T06:59:51.854Z,50.10
2019-03-31T07:02:20.265Z,45.63
2019-03-31T07:05:00.532Z,45.40
2019-03-31T07:07:23.582Z,45.40
2019-03-31T07:09:50.466Z,43.47
2019-03-31T07:12:18.962Z,47.50
2019-03-31T07:14:47.382Z,43.57
2019-03-31T07:17:15.910Z,45.30
2019-03-31T07:19:44.375Z,39.87
2019-03-31T07:22:13.039Z,44.87
2019-03-31T07:24:47.011Z,51.67
2019-03-31T07:27:15.520Z,41.50
2019-03-31T07:29:43.879Z,37.57
2019-03-31T07:32:12.284Z,41.67
2019-03-31T07:34:40.782Z,42.03
2019-03-31T07:37:09.028Z,47.23
2019-03-31T07:39:37.399Z,43.97
2019-03-31T07:42:05.906Z,43.13
2019-03-31T07:44:35.454Z,38.30
2019-03-31T07:47:03.726Z,40.57
2019-03-31T07:49:32.130Z,41.07
2019-03-31T07:52:00.605Z,40.20
2019-03-31T07:54:29.102Z,44.47
2019-03-31T07:56:57.508Z,39.90
2019-03-31T07:59:26.037Z,38.67
2019-03-31T08:01:54.510Z,34.33
2019-03-31T08:04:22.794Z,39.03
2019-03-31T08:06:51.046Z,36.25
2019-03-31T08:09:19.432Z,36.20
2019-03-31T08:11:50.871Z,33.43
2019-03-31T08:14:19.875Z,34.67
2019-03-31T08:16:49.152Z,32.17
2019-03-31T08:19:20.713Z,27.93
2019-03-31T08:21:47.583Z,30.37
2019-03-31T08:24:15.908Z,33.57
2019-03-31T08:26:44.319Z,36.00
2019-03-31T08:29:12.585Z,30.73
2019-03-31T08:31:43.124Z,30.60
2019-03-31T08:34:11.418Z,36.20
2019-03-31T08:36:39.688Z,27.37
2019-03-31T08:39:08.576Z,27.97
2019-03-31T08:41:36.917Z,25.60
2019-03-31T08:44:05.328Z,23.90
2019-03-31T08:46:33.622Z,26.90
2019-03-31T08:49:01.980Z,30.00
2019-03-31T08:51:30.326Z,25.57
2019-03-31T08:53:58.883Z,27.07
2019-03-31T08:56:27.134Z,28.33
2019-03-31T08:58:55.481Z,23.20
2019-03-31T09:01:23.930Z,24.60
2019-03-31T09:03:52.299Z,20.37
2019-03-31T09:06:22.578Z,18.53
2019-03-31T09:08:50.902Z,24.67
2019-03-31T09:11:19.136Z,17.67
2019-03-31T09:13:47.487Z,16.33
2019-03-31T09:16:15.803Z,20.10
2019-03-31T09:18:45.233Z,16.73
2019-03-31T09:21:13.515Z,17.90
2019-03-31T09:23:41.803Z,15.65
2019-03-31T09:26:14.493Z,17.63
2019-03-31T09:28:42.780Z,17.27
2019-03-31T09:31:12.837Z,84.17
2019-03-31T09:33:41.093Z,17.97
2019-03-31T09:36:16.070Z,16.93
2019-03-31T09:38:39.391Z,18.33
2019-03-31T09:41:07.732Z,21.20
2019-03-31T09:43:36.040Z,16.70
2019-03-31T09:46:04.471Z,16.50
2019-03-31T09:48:32.810Z,17.70
2019-03-31T09:51:03.359Z,13.63
2019-03-31T09:53:31.585Z,15.83
2019-03-31T09:55:59.944Z,15.30
2019-03-31T09:58:28.238Z,17.57
2019-03-31T10:00:56.546Z,14.90
2019-03-31T10:03:27.177Z,16.90
2019-03-31T10:06:09.395Z,16.50
2019-03-31T10:08:26.640Z,14.33
2019-03-31T10:10:54.991Z,15.40
2019-03-31T10:13:23.227Z,14.83
2019-03-31T10:15:51.508Z,14.60
2019-03-31T10:18:19.807Z,11.57
2019-03-31T10:20:48.164Z,12.60
2019-03-31T10:23:17.976Z,10.43
2019-03-31T10:25:46.313Z,10.00
2019-03-31T10:28:14.637Z,9.83
2019-03-31T10:30:42.905Z,7.20
2019-03-31T10:33:11.256Z,7.67
2019-03-31T10:35:39.632Z,9.70
2019-03-31T10:38:07.880Z,8.13
2019-03-31T10:40:36.395Z,11.57
2019-03-31T10:43:06.465Z,7.97
2019-03-31T10:45:34.797Z,8.93
2019-03-31T10:48:03.073Z,9.87
2019-03-31T10:50:31.908Z,10.83
2019-03-31T10:53:00.155Z,8.60
2019-03-31T10:55:28.469Z,8.97
2019-03-31T10:57:56.822Z,12.67
2019-03-31T11:00:31.971Z,8.30
2019-03-31T11:03:00.200Z,11.83
2019-03-31T11:05:28.533Z,10.13
2019-03-31T11:07:56.793Z,9.90
2019-03-31T11:10:25.125Z,12.17
2019-03-31T11:12:53.456Z,11.63
2019-03-31T11:15:21.735Z,9.27
2019-03-31T11:17:50.100Z,9.63
2019-03-31T11:20:25.240Z,10.67
2019-03-31T11:23:06.536Z,11.63
2019-03-31T11:25:34.940Z,10.23
2019-03-31T11:28:03.282Z,8.23
2019-03-31T11:30:31.635Z,9.43
2019-03-31T11:32:59.899Z,9.70
2019-03-31T11:35:28.192Z,11.13
2019-03-31T11:37:56.540Z,8.60
2019-03-31T11:40:24.869Z,8.23
2019-03-31T11:42:53.082Z,10.23
2019-03-31T11:45:21.360Z,12.03
2019-03-31T11:47:49.626Z,11.53
2019-03-31T11:50:17.907Z,11.80
2019-03-31T11:52:46.192Z,10.97
2019-03-31T11:55:14.565Z,13.27
2019-03-31T11:57:42.848Z,11.30
2019-03-31T12:00:13.102Z,10.00
2019-03-31T12:02:41.427Z,10.67
2019-03-31T12:05:09.703Z,8.50
2019-03-31T12:07:46.740Z,9.50
2019-03-31T12:10:07.833Z,7.13
2019-03-31T12:12:36.137Z,8.37
2019-03-31T12:15:04.472Z,8.43
2019-03-31T12:17:32.790Z,7.53
2019-03-31T12:20:01.044Z,9.83
2019-03-31T12:22:29.497Z,9.00
2019-03-31T12:24:57.850Z,9.90
2019-03-31T12:27:26.107Z,8.17
2019-03-31T12:29:54.476Z,9.60
2019-03-31T12:32:22.756Z,6.80
2019-03-31T12:34:51.032Z,6.87
2019-03-31T12:37:19.413Z,6.08
2019-03-31T12:39:47.986Z,6.40
2019-03-31T12:42:16.266Z,5.80
2019-03-31T12:44:45.063Z,7.67
2019-03-31T12:47:13.783Z,5.35
2019-03-31T12:49:42.257Z,4.43
2019-03-31T12:52:10.568Z,4.80
2019-03-31T12:54:39.220Z,4.57
2019-03-31T12:57:07.452Z,5.85
2019-03-31T12:59:36.015Z,5.83
2019-03-31T13:02:04.446Z,5.05
2019-03-31T13:04:32.996Z,6.07
2019-03-31T13:07:01.431Z,4.95
2019-03-31T13:09:30.031Z,5.40
2019-03-31T13:11:58.287Z,5.80
2019-03-31T13:14:26.593Z,5.27
2019-03-31T13:16:54.921Z,4.73
2019-03-31T13:19:23.180Z,6.70
2019-03-31T13:21:51.515Z,5.03
2019-03-31T13:24:19.832Z,5.13
2019-03-31T13:26:48.093Z,4.27
2019-03-31T13:29:16.361Z,5.05
2019-03-31T13:31:44.708Z,4.37
2019-03-31T13:34:13.057Z,6.47
2019-03-31T13:36:41.509Z,4.63
2019-03-31T13:39:09.780Z,5.40
2019-03-31T13:41:38.142Z,5.10
2019-03-31T13:44:06.563Z,6.50
2019-03-31T13:46:34.951Z,8.98
2019-03-31T13:49:03.205Z,7.45
2019-03-31T13:51:31.549Z,7.50
2019-03-31T13:53:59.795Z,6.57
2019-03-31T13:56:28.641Z,6.97
2019-03-31T13:58:57.099Z,6.73
2019-03-31T14:01:25.535Z,6.72
2019-03-31T14:03:53.802Z,7.23
2019-03-31T14:06:22.171Z,7.67
2019-03-31T14:08:50.646Z,5.67
2019-03-31T14:11:21.608Z,7.58
2019-03-31T14:13:49.534Z,7.65
2019-03-31T14:16:18.051Z,8.98
2019-03-31T14:18:46.387Z,5.37
2019-03-31T14:21:14.766Z,5.20
2019-03-31T14:23:45.442Z,7.10
2019-03-31T14:26:13.875Z,6.42
2019-03-31T14:28:42.318Z,5.50
2019-03-31T14:31:11.326Z,7.58
2019-03-31T14:33:40.366Z,9.37
2019-03-31T14:36:09.362Z,6.58
2019-03-31T14:38:40.370Z,4.60
2019-03-31T14:41:08.286Z,7.85
2019-03-31T14:43:37.266Z,5.35
2019-03-31T14:46:06.044Z,7.10
2019-03-31T14:48:35.024Z,5.97
2019-03-31T14:51:03.899Z,3.17
2019-03-31T14:53:32.800Z,2.67
2019-03-31T14:56:02.109Z,7.27
2019-03-31T14:58:30.925Z,4.80
2019-03-31T15:00:59.511Z,3.80
2019-03-31T15:03:28.252Z,2.50
2019-03-31T15:05:56.951Z,5.10
2019-03-31T15:08:25.670Z,2.50
2019-03-31T15:10:54.590Z,4.67
2019-03-31T15:13:23.232Z,5.23
2019-03-31T15:15:52.055Z,6.23
2019-03-31T15:18:20.709Z,18.10
2019-03-31T15:20:51.136Z,5.67
2019-03-31T15:23:19.542Z,3.30
2019-03-31T15:25:48.154Z,6.60
2019-03-31T15:28:16.559Z,7.53
2019-03-31T15:30:45.241Z,4.80
2019-03-31T15:33:13.586Z,5.60
2019-03-31T15:35:42.125Z,6.40
2019-03-31T15:38:10.680Z,9.53
2019-03-31T15:40:39.130Z,5.10
2019-03-31T15:43:07.449Z,3.70
2019-03-31T15:45:35.758Z,4.00
2019-03-31T15:48:04.151Z,3.67
2019-03-31T15:50:32.623Z,6.22
2019-03-31T15:53:01.042Z,4.20
2019-03-31T15:55:29.404Z,2.73
2019-03-31T15:57:57.752Z,7.33
2019-03-31T16:00:26.088Z,3.67
2019-03-31T16:02:54.391Z,4.40
2019-03-31T16:05:22.702Z,3.60
2019-03-31T16:07:50.780Z,4.83
2019-03-31T16:10:18.793Z,5.30
2019-03-31T16:12:46.850Z,3.97
2019-03-31T16:15:14.824Z,4.00
2019-03-31T16:17:42.817Z,10.20
2019-03-31T16:20:10.827Z,4.57
2019-03-31T16:22:38.849Z,7.33
2019-03-31T16:25:12.722Z,4.07
2019-03-31T16:27:40.713Z,5.00
2019-03-31T16:30:08.901Z,2.73
2019-03-31T16:32:36.988Z,5.40
2019-03-31T16:35:05.002Z,6.53
2019-03-31T16:37:33.108Z,4.40
2019-03-31T16:40:01.128Z,4.27
2019-03-31T16:42:29.302Z,2.77
2019-03-31T16:44:58.614Z,4.57
2019-03-31T16:47:26.687Z,4.33
2019-03-31T16:49:54.661Z,7.00
2019-03-31T16:52:22.685Z,5.17
2019-03-31T16:54:50.769Z,5.80
2019-03-31T16:57:18.774Z,6.60
2019-03-31T16:59:46.745Z,2.77
2019-03-31T17:02:14.804Z,3.85
2019-03-31T17:04:42.782Z,3.93
2019-03-31T17:07:10.858Z,5.17
2019-03-31T17:09:50.930Z,3.30
2019-03-31T17:12:08.440Z,4.93
2019-03-31T17:14:36.467Z,6.13
2019-03-31T17:17:04.431Z,3.13
2019-03-31T17:19:32.438Z,4.97
2019-03-31T17:22:00.398Z,5.63
2019-03-31T17:24:28.465Z,4.40
2019-03-31T17:26:56.541Z,4.87
2019-03-31T17:29:24.549Z,5.00
2019-03-31T17:31:52.840Z,6.53
2019-03-31T17:34:20.872Z,4.67
2019-03-31T17:36:49.013Z,8.35
2019-03-31T17:39:18.533Z,7.50
2019-03-31T17:41:46.679Z,8.57
2019-03-31T17:44:16.344Z,6.93
2019-03-31T17:46:44.979Z,5.83
2019-03-31T17:49:14.342Z,5.23
2019-03-31T17:52:01.663Z,9.70
2019-03-31T17:54:30.034Z,7.28
2019-03-31T17:56:58.385Z,5.83
2019-03-31T17:59:26.445Z,6.20
2019-03-31T18:01:55.698Z,6.40
2019-03-31T18:04:24.193Z,5.40
2019-03-31T18:06:52.948Z,6.63
2019-03-31T18:09:26.493Z,5.37
2019-03-31T18:11:55.606Z,6.97
2019-03-31T18:14:23.987Z,6.40
2019-03-31T18:16:54.169Z,6.67
2019-03-31T18:19:22.581Z,6.37
2019-03-31T18:21:50.950Z,6.57
2019-03-31T18:24:22.317Z,4.27
2019-03-31T18:26:50.885Z,7.23
2019-03-31T18:29:18.754Z,5.13
2019-03-31T18:31:46.794Z,6.00
2019-03-31T18:34:15.059Z,5.27
2019-03-31T18:36:43.259Z,6.50
2019-03-31T18:39:11.163Z,8.40
2019-03-31T18:41:39.206Z,2.60
2019-03-31T18:44:07.196Z,6.70
2019-03-31T18:46:35.099Z,5.73
2019-03-31T18:49:03.085Z,5.90
2019-03-31T18:51:31.152Z,6.30
2019-03-31T18:54:21.168Z,3.40
2019-03-31T18:56:58.735Z,7.50
2019-03-31T18:59:35.593Z,8.33
2019-03-31T19:02:21.154Z,3.60
2019-03-31T19:05:20.644Z,6.23
2019-03-31T19:08:16.316Z,8.27
2019-03-31T19:11:04.289Z,6.17
2019-03-31T19:14:03.343Z,8.77
2019-03-31T19:16:50.259Z,5.27
2019-03-31T19:19:35.655Z,6.40
2019-03-31T19:22:23.332Z,4.73
2019-03-31T19:25:10.312Z,7.57
2019-03-31T19:27:48.705Z,5.33
2019-03-31T19:30:35.828Z,7.67
2019-03-31T19:33:28.533Z,6.05
2019-03-31T19:36:05.233Z,5.23
2019-03-31T19:38:42.888Z,7.40
2019-03-31T19:41:30.457Z,5.33
2019-03-31T19:44:05.759Z,10.27
2019-03-31T19:46:52.004Z,5.90
2019-03-31T19:49:31.191Z,5.40
2019-03-31T19:52:18.225Z,7.03
2019-03-31T19:55:20.178Z,8.73
2019-03-31T19:58:10.487Z,8.00
2019-03-31T20:01:09.730Z,4.47
2019-03-31T20:04:05.929Z,7.83
2019-03-31T20:06:44.148Z,7.10
2019-03-31T20:09:23.939Z,6.00
2019-03-31T20:12:01.115Z,6.30
2019-03-31T20:14:48.446Z,9.77
2019-03-31T20:17:48.934Z,4.50
2019-03-31T20:20:38.637Z,6.30
2019-03-31T20:23:24.203Z,5.03
2019-03-31T20:26:09.427Z,8.77
2019-03-31T20:28:51.187Z,4.67
2019-03-31T20:31:41.251Z,7.27
2019-03-31T20:34:43.526Z,9.83
2019-03-31T20:37:33.163Z,7.10
2019-03-31T20:40:16.938Z,8.70
2019-03-31T20:43:15.979Z,10.73
2019-03-31T20:45:43.954Z,7.23
2019-03-31T20:48:12.017Z,8.15
2019-03-31T20:50:40.093Z,7.47
2019-03-31T20:53:08.068Z,8.48
2019-03-31T20:55:36.002Z,12.03
2019-03-31T20:58:03.947Z,8.27
2019-03-31T21:00:31.935Z,7.63
2019-03-31T21:02:59.907Z,7.00
2019-03-31T21:05:27.862Z,6.47
2019-03-31T21:07:55.894Z,5.47
2019-03-31T21:10:23.838Z,5.07
2019-03-31T21:12:51.878Z,6.67
2019-03-31T21:15:19.842Z,8.08
2019-03-31T21:17:47.808Z,7.40
2019-03-31T21:20:15.805Z,4.93
2019-03-31T21:22:43.779Z,7.40
2019-03-31T21:25:13.662Z,5.53
2019-03-31T21:27:41.251Z,3.83
2019-03-31T21:30:09.279Z,5.57
2019-03-31T21:32:37.718Z,4.43
2019-03-31T21:35:05.797Z,10.30
2019-03-31T21:37:34.095Z,9.73
2019-03-31T21:40:02.072Z,8.60
2019-03-31T21:42:30.109Z,6.67
2019-03-31T21:44:58.128Z,6.33
2019-03-31T21:47:26.125Z,11.43
2019-03-31T21:49:54.098Z,39.50
2019-03-31T21:52:22.092Z,22.67
2019-03-31T21:54:49.979Z,6.80
2019-03-31T21:57:17.897Z,7.43
2019-03-31T21:59:45.945Z,5.93
2019-03-31T22:02:13.924Z,6.10
2019-03-31T22:04:41.914Z,8.37
2019-03-31T22:07:10.012Z,5.23
2019-03-31T22:09:37.961Z,6.47
2019-03-31T22:12:06.066Z,7.03
2019-03-31T22:14:34.007Z,6.30
2019-03-31T22:17:01.953Z,9.27
2019-03-31T22:19:30.761Z,7.50
2019-03-31T22:21:58.722Z,6.80
2019-03-31T22:24:26.731Z,3.50
2019-03-31T22:26:54.659Z,5.10
2019-03-31T22:29:22.590Z,6.30
2019-03-31T22:31:50.584Z,6.77
2019-03-31T22:34:18.525Z,4.97
2019-03-31T22:36:46.482Z,4.60
2019-03-31T22:39:14.432Z,4.87
2019-03-31T22:41:42.397Z,6.30
2019-03-31T22:44:10.384Z,8.07
2019-03-31T22:46:38.340Z,5.67
2019-03-31T22:49:06.665Z,5.97
2019-03-31T22:51:34.584Z,5.00
2019-03-31T22:54:02.518Z,3.33
2019-03-31T22:56:30.459Z,5.77
2019-03-31T22:58:58.434Z,7.23
2019-03-31T23:01:26.377Z,5.17
2019-03-31T23:03:54.317Z,6.70
2019-03-31T23:06:22.352Z,4.80
2019-03-31T23:08:50.282Z,5.83
2019-03-31T23:11:18.212Z,7.60
2019-03-31T23:13:46.185Z,7.30
2019-03-31T23:16:14.258Z,6.63
2019-03-31T23:18:42.250Z,8.17
2019-03-31T23:21:10.163Z,8.50
2019-03-31T23:23:38.196Z,5.80
2019-03-31T23:26:06.094Z,7.40
2019-03-31T23:28:35.622Z,5.70
2019-03-31T23:31:03.874Z,9.03
2019-03-31T23:33:31.774Z,5.63
2019-03-31T23:35:59.746Z,6.73
2019-03-31T23:38:27.638Z,5.97
2019-03-31T23:40:55.637Z,4.80
2019-03-31T23:43:23.607Z,6.70
2019-03-31T23:45:51.571Z,7.97
2019-03-31T23:48:19.478Z,7.10
2019-03-31T23:50:47.473Z,5.10
2019-03-31T23:53:15.396Z,8.40
2019-03-31T23:55:43.324Z,6.50
2019-03-31T23:58:11.338Z,6.13
